sensor_id;sensor_type;location;lat;lon;timestamp;P1;durP1;ratioP1;P2;durP2;ratioP2
60306;SDS011;46155;52.364;6.580;2023-08-06T03:02:19;36.10;;;33.03;;
60306;SDS011;46155;52.364;6.580;2023-08-06T03:04:44;37.90;;;34.60;;
60306;SDS011;46155;52.364;6.580;2023-08-06T03:07:09;38.03;;;34.77;;
60306;SDS011;46155;52.364;6.580;2023-08-06T03:09:35;35.10;;;32.20;;
60306;SDS011;46155;52.364;6.580;2023-08-06T03:12:00;37.77;;;34.43;;
60306;SDS011;46155;52.364;6.580;2023-08-06T03:14:25;36.60;;;33.13;;
60306;SDS011;46155;52.364;6.580;2023-08-06T03:16:51;38.63;;;34.80;;
60306;SDS011;46155;52.364;6.580;2023-08-06T03:19:16;35.17;;;32.17;;
60306;SDS011;46155;52.364;6.580;2023-08-06T03:21:41;35.33;;;32.63;;
60306;SDS011;46155;52.364;6.580;2023-08-06T03:24:06;38.07;;;34.47;;
60306;SDS011;46155;52.364;6.580;2023-08-06T03:26:32;38.40;;;35.40;;
60306;SDS011;46155;52.364;6.580;2023-08-06T03:28:57;37.50;;;34.80;;
60306;SDS011;46155;52.364;6.580;2023-08-06T03:31:22;39.83;;;36.63;;
60306;SDS011;46155;52.364;6.580;2023-08-06T03:33:48;40.40;;;37.07;;
60306;SDS011;46155;52.364;6.580;2023-08-06T03:36:13;37.87;;;35.00;;
60306;SDS011;46155;52.364;6.580;2023-08-06T03:38:39;38.00;;;35.00;;
60306;SDS011;46155;52.364;6.580;2023-08-06T03:41:04;38.53;;;35.30;;
60306;SDS011;46155;52.364;6.580;2023-08-06T03:43:29;37.57;;;34.37;;
60306;SDS011;46155;52.364;6.580;2023-08-06T03:45:55;39.40;;;36.00;;
60306;SDS011;46155;52.364;6.580;2023-08-06T03:48:20;37.63;;;34.13;;
60306;SDS011;46155;52.364;6.580;2023-08-06T03:50:45;39.70;;;35.97;;
60306;SDS011;46155;52.364;6.580;2023-08-06T03:53:11;36.53;;;33.43;;
60306;SDS011;46155;52.364;6.580;2023-08-06T03:55:36;39.90;;;36.40;;
60306;SDS011;46155;52.364;6.580;2023-08-06T03:58:01;36.70;;;33.70;;
60306;SDS011;46155;52.364;6.580;2023-08-06T04:00:27;39.17;;;36.03;;
60306;SDS011;46155;52.364;6.580;2023-08-06T04:02:53;37.57;;;34.17;;
60306;SDS011;46155;52.364;6.580;2023-08-06T04:05:18;37.20;;;34.13;;
60306;SDS011;46155;52.364;6.580;2023-08-06T04:07:44;40.33;;;36.97;;
60306;SDS011;46155;52.364;6.580;2023-08-06T04:10:09;40.23;;;37.13;;
60306;SDS011;46155;52.364;6.580;2023-08-06T04:12:34;39.70;;;36.47;;
60306;SDS011;46155;52.364;6.580;2023-08-06T04:15:03;39.97;;;36.30;;
60306;SDS011;46155;52.364;6.580;2023-08-06T04:17:29;38.70;;;35.30;;
60306;SDS011;46155;52.364;6.580;2023-08-06T04:19:54;34.23;;;31.10;;
60306;SDS011;46155;52.364;6.580;2023-08-06T04:22:23;33.97;;;29.27;;
60306;SDS011;46155;52.364;6.580;2023-08-06T04:24:48;33.07;;;30.03;;
60306;SDS011;46155;52.364;6.580;2023-08-06T04:27:14;32.73;;;29.90;;
60306;SDS011;46155;52.364;6.580;2023-08-06T04:29:40;33.97;;;30.93;;
60306;SDS011;46155;52.364;6.580;2023-08-06T04:32:06;35.90;;;32.70;;
60306;SDS011;46155;52.364;6.580;2023-08-06T04:34:33;35.53;;;32.33;;
60306;SDS011;46155;52.364;6.580;2023-08-06T04:36:59;36.13;;;33.03;;
60306;SDS011;46155;52.364;6.580;2023-08-06T04:39:24;34.13;;;31.17;;
60306;SDS011;46155;52.364;6.580;2023-08-06T04:41:50;35.73;;;32.40;;
60306;SDS011;46155;52.364;6.580;2023-08-06T04:44:15;36.20;;;32.73;;
60306;SDS011;46155;52.364;6.580;2023-08-06T04:46:40;36.00;;;32.67;;
60306;SDS011;46155;52.364;6.580;2023-08-06T04:49:06;34.80;;;31.80;;
60306;SDS011;46155;52.364;6.580;2023-08-06T04:51:31;36.57;;;33.37;;
60306;SDS011;46155;52.364;6.580;2023-08-06T04:53:57;33.83;;;31.03;;
60306;SDS011;46155;52.364;6.580;2023-08-06T04:56:22;34.67;;;31.27;;
60306;SDS011;46155;52.364;6.580;2023-08-06T04:58:48;34.57;;;30.97;;
60306;SDS011;46155;52.364;6.580;2023-08-06T05:01:13;33.00;;;30.13;;
60306;SDS011;46155;52.364;6.580;2023-08-06T05:03:39;34.93;;;31.63;;
60306;SDS011;46155;52.364;6.580;2023-08-06T05:06:04;35.20;;;32.30;;
60306;SDS011;46155;52.364;6.580;2023-08-06T05:08:29;35.97;;;32.67;;
60306;SDS011;46155;52.364;6.580;2023-08-06T05:10:55;35.10;;;32.00;;
60306;SDS011;46155;52.364;6.580;2023-08-06T05:13:20;39.50;;;35.80;;
60306;SDS011;46155;52.364;6.580;2023-08-06T05:15:46;35.50;;;32.60;;
60306;SDS011;46155;52.364;6.580;2023-08-06T05:18:11;36.90;;;33.20;;
60306;SDS011;46155;52.364;6.580;2023-08-06T05:20:37;37.27;;;33.83;;
60306;SDS011;46155;52.364;6.580;2023-08-06T05:23:03;37.23;;;33.63;;
60306;SDS011;46155;52.364;6.580;2023-08-06T05:25:29;38.17;;;34.87;;
60306;SDS011;46155;52.364;6.580;2023-08-06T05:27:59;38.47;;;35.07;;
60306;SDS011;46155;52.364;6.580;2023-08-06T05:30:26;38.70;;;35.00;;
60306;SDS011;46155;52.364;6.580;2023-08-06T05:32:52;38.23;;;34.73;;
60306;SDS011;46155;52.364;6.580;2023-08-06T05:35:17;37.67;;;33.87;;
60306;SDS011;46155;52.364;6.580;2023-08-06T05:37:42;38.67;;;35.00;;
60306;SDS011;46155;52.364;6.580;2023-08-06T05:40:08;37.33;;;34.03;;
60306;SDS011;46155;52.364;6.580;2023-08-06T05:42:33;36.13;;;32.90;;
60306;SDS011;46155;52.364;6.580;2023-08-06T05:44:58;36.00;;;32.57;;
60306;SDS011;46155;52.364;6.580;2023-08-06T05:47:24;37.30;;;33.47;;
60306;SDS011;46155;52.364;6.580;2023-08-06T05:49:49;38.00;;;34.13;;
60306;SDS011;46155;52.364;6.580;2023-08-06T05:52:14;33.23;;;30.23;;
60306;SDS011;46155;52.364;6.580;2023-08-06T05:54:40;35.00;;;31.67;;
60306;SDS011;46155;52.364;6.580;2023-08-06T05:57:05;30.37;;;27.53;;
60306;SDS011;46155;52.364;6.580;2023-08-06T05:59:31;32.57;;;29.47;;
60306;SDS011;46155;52.364;6.580;2023-08-06T06:01:56;34.00;;;30.70;;
60306;SDS011;46155;52.364;6.580;2023-08-06T06:04:22;34.40;;;30.93;;
60306;SDS011;46155;52.364;6.580;2023-08-06T06:06:47;34.30;;;31.00;;
60306;SDS011;46155;52.364;6.580;2023-08-06T06:09:12;34.03;;;30.53;;
60306;SDS011;46155;52.364;6.580;2023-08-06T06:11:38;35.20;;;31.90;;
60306;SDS011;46155;52.364;6.580;2023-08-06T06:14:03;34.30;;;30.73;;
60306;SDS011;46155;52.364;6.580;2023-08-06T06:16:28;33.90;;;31.00;;
60306;SDS011;46155;52.364;6.580;2023-08-06T06:18:53;35.37;;;30.50;;
60306;SDS011;46155;52.364;6.580;2023-08-06T06:21:19;33.07;;;30.17;;
60306;SDS011;46155;52.364;6.580;2023-08-06T06:23:45;33.97;;;30.90;;
60306;SDS011;46155;52.364;6.580;2023-08-06T06:26:10;28.80;;;25.67;;
60306;SDS011;46155;52.364;6.580;2023-08-06T06:28:36;33.37;;;29.97;;
60306;SDS011;46155;52.364;6.580;2023-08-06T06:31:01;32.10;;;28.90;;
60306;SDS011;46155;52.364;6.580;2023-08-06T06:33:27;32.27;;;28.93;;
60306;SDS011;46155;52.364;6.580;2023-08-06T06:35:52;29.00;;;25.87;;
60306;SDS011;46155;52.364;6.580;2023-08-06T06:38:17;31.67;;;28.57;;
60306;SDS011;46155;52.364;6.580;2023-08-06T06:40:43;30.73;;;27.73;;
60306;SDS011;46155;52.364;6.580;2023-08-06T06:43:08;30.97;;;27.80;;
60306;SDS011;46155;52.364;6.580;2023-08-06T06:45:33;31.53;;;28.27;;
60306;SDS011;46155;52.364;6.580;2023-08-06T06:47:59;30.43;;;27.43;;
60306;SDS011;46155;52.364;6.580;2023-08-06T06:50:24;31.23;;;28.13;;
60306;SDS011;46155;52.364;6.580;2023-08-06T06:52:51;27.17;;;24.67;;
60306;SDS011;46155;52.364;6.580;2023-08-06T06:55:16;29.87;;;26.90;;
60306;SDS011;46155;52.364;6.580;2023-08-06T06:57:41;29.97;;;26.90;;
60306;SDS011;46155;52.364;6.580;2023-08-06T07:00:07;30.80;;;27.63;;
60306;SDS011;46155;52.364;6.580;2023-08-06T07:02:32;29.77;;;26.93;;
60306;SDS011;46155;52.364;6.580;2023-08-06T07:04:58;28.87;;;25.50;;
60306;SDS011;46155;52.364;6.580;2023-08-06T07:07:23;30.07;;;27.03;;
60306;SDS011;46155;52.364;6.580;2023-08-06T07:09:48;28.57;;;25.70;;
60306;SDS011;46155;52.364;6.580;2023-08-06T07:12:14;29.20;;;26.13;;
60306;SDS011;46155;52.364;6.580;2023-08-06T07:14:39;30.07;;;27.00;;
60306;SDS011;46155;52.364;6.580;2023-08-06T07:17:04;31.00;;;27.97;;
60306;SDS011;46155;52.364;6.580;2023-08-06T07:19:30;31.03;;;28.07;;
60306;SDS011;46155;52.364;6.580;2023-08-06T07:21:55;31.33;;;28.43;;
60306;SDS011;46155;52.364;6.580;2023-08-06T07:24:21;29.17;;;26.37;;
60306;SDS011;46155;52.364;6.580;2023-08-06T07:26:46;30.03;;;27.27;;
60306;SDS011;46155;52.364;6.580;2023-08-06T07:29:12;28.60;;;25.80;;
60306;SDS011;46155;52.364;6.580;2023-08-06T07:31:37;29.10;;;26.40;;
60306;SDS011;46155;52.364;6.580;2023-08-06T07:34:02;29.10;;;26.33;;
60306;SDS011;46155;52.364;6.580;2023-08-06T07:36:28;23.83;;;21.63;;
60306;SDS011;46155;52.364;6.580;2023-08-06T07:38:53;28.53;;;25.73;;
60306;SDS011;46155;52.364;6.580;2023-08-06T07:41:24;27.23;;;24.33;;
60306;SDS011;46155;52.364;6.580;2023-08-06T07:43:50;28.10;;;25.27;;
60306;SDS011;46155;52.364;6.580;2023-08-06T07:46:15;25.70;;;22.97;;
60306;SDS011;46155;52.364;6.580;2023-08-06T07:48:40;26.70;;;24.33;;
60306;SDS011;46155;52.364;6.580;2023-08-06T07:51:06;29.27;;;26.23;;
60306;SDS011;46155;52.364;6.580;2023-08-06T07:53:31;26.30;;;24.03;;
60306;SDS011;46155;52.364;6.580;2023-08-06T07:55:56;24.20;;;21.83;;
60306;SDS011;46155;52.364;6.580;2023-08-06T07:58:23;26.13;;;23.50;;
60306;SDS011;46155;52.364;6.580;2023-08-06T08:00:49;26.40;;;24.20;;
60306;SDS011;46155;52.364;6.580;2023-08-06T08:03:15;26.70;;;24.17;;
60306;SDS011;46155;52.364;6.580;2023-08-06T08:05:41;23.50;;;21.30;;
60306;SDS011;46155;52.364;6.580;2023-08-06T08:08:08;26.33;;;23.90;;
60306;SDS011;46155;52.364;6.580;2023-08-06T08:10:33;26.20;;;21.97;;
60306;SDS011;46155;52.364;6.580;2023-08-06T08:13:00;22.87;;;20.33;;
60306;SDS011;46155;52.364;6.580;2023-08-06T08:15:29;26.20;;;23.63;;
60306;SDS011;46155;52.364;6.580;2023-08-06T08:17:55;25.00;;;22.47;;
60306;SDS011;46155;52.364;6.580;2023-08-06T08:20:20;24.20;;;21.40;;
60306;SDS011;46155;52.364;6.580;2023-08-06T08:22:46;26.77;;;24.40;;
60306;SDS011;46155;52.364;6.580;2023-08-06T08:25:11;26.60;;;23.90;;
60306;SDS011;46155;52.364;6.580;2023-08-06T08:27:37;25.90;;;23.27;;
60306;SDS011;46155;52.364;6.580;2023-08-06T08:30:02;27.60;;;24.97;;
60306;SDS011;46155;52.364;6.580;2023-08-06T08:32:28;26.17;;;23.87;;
60306;SDS011;46155;52.364;6.580;2023-08-06T08:34:53;22.97;;;20.73;;
60306;SDS011;46155;52.364;6.580;2023-08-06T08:37:18;24.03;;;22.07;;
60306;SDS011;46155;52.364;6.580;2023-08-06T08:39:44;27.50;;;24.83;;
60306;SDS011;46155;52.364;6.580;2023-08-06T08:42:09;26.57;;;24.13;;
60306;SDS011;46155;52.364;6.580;2023-08-06T08:44:35;27.43;;;25.03;;
60306;SDS011;46155;52.364;6.580;2023-08-06T08:47:04;25.37;;;22.90;;
60306;SDS011;46155;52.364;6.580;2023-08-06T08:49:31;26.37;;;23.53;;
60306;SDS011;46155;52.364;6.580;2023-08-06T08:51:57;27.67;;;24.97;;
60306;SDS011;46155;52.364;6.580;2023-08-06T08:54:24;25.67;;;23.27;;
60306;SDS011;46155;52.364;6.580;2023-08-06T08:56:51;24.80;;;22.63;;
60306;SDS011;46155;52.364;6.580;2023-08-06T08:59:16;24.00;;;21.80;;
60306;SDS011;46155;52.364;6.580;2023-08-06T09:01:42;28.10;;;22.87;;
60306;SDS011;46155;52.364;6.580;2023-08-06T09:04:09;26.37;;;22.53;;
60306;SDS011;46155;52.364;6.580;2023-08-06T09:06:36;23.40;;;21.37;;
60306;SDS011;46155;52.364;6.580;2023-08-06T09:09:07;26.47;;;19.93;;
60306;SDS011;46155;52.364;6.580;2023-08-06T09:11:35;24.63;;;22.37;;
60306;SDS011;46155;52.364;6.580;2023-08-06T09:14:08;22.17;;;19.93;;
60306;SDS011;46155;52.364;6.580;2023-08-06T09:16:35;21.43;;;19.43;;
60306;SDS011;46155;52.364;6.580;2023-08-06T09:19:10;20.73;;;18.83;;
60306;SDS011;46155;52.364;6.580;2023-08-06T09:21:46;21.40;;;19.57;;
60306;SDS011;46155;52.364;6.580;2023-08-06T09:24:14;21.50;;;19.60;;
60306;SDS011;46155;52.364;6.580;2023-08-06T09:26:41;20.93;;;18.97;;
60306;SDS011;46155;52.364;6.580;2023-08-06T09:29:08;20.80;;;19.00;;
60306;SDS011;46155;52.364;6.580;2023-08-06T09:34:10;22.03;;;19.93;;
60306;SDS011;46155;52.364;6.580;2023-08-06T09:36:55;17.30;;;15.70;;
60306;SDS011;46155;52.364;6.580;2023-08-06T09:39:26;16.30;;;14.80;;
60306;SDS011;46155;52.364;6.580;2023-08-06T09:41:56;18.40;;;16.50;;
60306;SDS011;46155;52.364;6.580;2023-08-06T09:44:26;20.40;;;18.17;;
60306;SDS011;46155;52.364;6.580;2023-08-06T09:47:00;17.10;;;15.27;;
60306;SDS011;46155;52.364;6.580;2023-08-06T09:49:28;18.10;;;16.60;;
60306;SDS011;46155;52.364;6.580;2023-08-06T09:52:08;19.03;;;17.00;;
60306;SDS011;46155;52.364;6.580;2023-08-06T09:54:35;17.63;;;16.13;;
60306;SDS011;46155;52.364;6.580;2023-08-06T09:57:03;16.73;;;15.37;;
60306;SDS011;46155;52.364;6.580;2023-08-06T09:59:28;15.77;;;14.17;;
60306;SDS011;46155;52.364;6.580;2023-08-06T10:01:55;16.67;;;15.37;;
60306;SDS011;46155;52.364;6.580;2023-08-06T10:04:21;16.77;;;15.03;;
60306;SDS011;46155;52.364;6.580;2023-08-06T10:06:48;15.07;;;13.63;;
60306;SDS011;46155;52.364;6.580;2023-08-06T10:09:13;13.37;;;12.27;;
60306;SDS011;46155;52.364;6.580;2023-08-06T10:11:39;14.53;;;13.10;;
60306;SDS011;46155;52.364;6.580;2023-08-06T10:17:09;14.70;;;13.47;;
60306;SDS011;46155;52.364;6.580;2023-08-06T10:19:35;14.17;;;11.80;;
60306;SDS011;46155;52.364;6.580;2023-08-06T10:22:13;14.73;;;13.50;;
60306;SDS011;46155;52.364;6.580;2023-08-06T10:27:19;13.70;;;12.50;;
60306;SDS011;46155;52.364;6.580;2023-08-06T10:29:45;13.87;;;12.13;;
60306;SDS011;46155;52.364;6.580;2023-08-06T10:32:11;15.10;;;13.63;;
60306;SDS011;46155;52.364;6.580;2023-08-06T10:37:21;18.33;;;16.37;;
60306;SDS011;46155;52.364;6.580;2023-08-06T10:39:49;18.57;;;16.73;;
60306;SDS011;46155;52.364;6.580;2023-08-06T10:42:19;22.40;;;18.90;;
60306;SDS011;46155;52.364;6.580;2023-08-06T10:47:40;20.77;;;18.43;;
60306;SDS011;46155;52.364;6.580;2023-08-06T10:50:06;21.33;;;19.07;;
60306;SDS011;46155;52.364;6.580;2023-08-06T10:52:34;23.27;;;18.50;;
60306;SDS011;46155;52.364;6.580;2023-08-06T10:54:59;20.10;;;18.00;;
60306;SDS011;46155;52.364;6.580;2023-08-06T10:57:25;20.70;;;18.30;;
60306;SDS011;46155;52.364;6.580;2023-08-06T10:59:50;18.73;;;16.93;;
60306;SDS011;46155;52.364;6.580;2023-08-06T11:02:16;18.17;;;16.27;;
60306;SDS011;46155;52.364;6.580;2023-08-06T11:04:41;17.57;;;15.87;;
60306;SDS011;46155;52.364;6.580;2023-08-06T11:07:07;19.37;;;16.50;;
60306;SDS011;46155;52.364;6.580;2023-08-06T11:09:32;17.87;;;15.97;;
60306;SDS011;46155;52.364;6.580;2023-08-06T11:11:57;18.27;;;16.53;;
60306;SDS011;46155;52.364;6.580;2023-08-06T11:14:26;19.43;;;17.33;;
60306;SDS011;46155;52.364;6.580;2023-08-06T11:16:51;18.47;;;16.57;;
60306;SDS011;46155;52.364;6.580;2023-08-06T11:19:17;18.83;;;17.03;;
60306;SDS011;46155;52.364;6.580;2023-08-06T11:21:43;18.10;;;15.37;;
60306;SDS011;46155;52.364;6.580;2023-08-06T11:24:11;21.87;;;16.20;;
60306;SDS011;46155;52.364;6.580;2023-08-06T11:26:37;14.90;;;13.50;;
60306;SDS011;46155;52.364;6.580;2023-08-06T11:29:03;15.40;;;13.97;;
60306;SDS011;46155;52.364;6.580;2023-08-06T11:31:28;14.63;;;13.10;;
60306;SDS011;46155;52.364;6.580;2023-08-06T11:33:54;15.10;;;13.67;;
60306;SDS011;46155;52.364;6.580;2023-08-06T11:36:32;15.03;;;13.63;;
60306;SDS011;46155;52.364;6.580;2023-08-06T11:39:02;16.43;;;14.93;;
60306;SDS011;46155;52.364;6.580;2023-08-06T11:41:30;15.63;;;14.20;;
60306;SDS011;46155;52.364;6.580;2023-08-06T11:43:56;14.87;;;13.40;;
60306;SDS011;46155;52.364;6.580;2023-08-06T11:46:21;13.10;;;11.87;;
60306;SDS011;46155;52.364;6.580;2023-08-06T11:48:54;15.03;;;13.43;;
60306;SDS011;46155;52.364;6.580;2023-08-06T11:51:24;15.83;;;14.50;;
60306;SDS011;46155;52.364;6.580;2023-08-06T11:54:00;15.23;;;13.57;;
60306;SDS011;46155;52.364;6.580;2023-08-06T11:56:27;17.63;;;12.87;;
60306;SDS011;46155;52.364;6.580;2023-08-06T11:58:54;12.97;;;11.80;;
60306;SDS011;46155;52.364;6.580;2023-08-06T12:01:20;14.47;;;13.13;;
60306;SDS011;46155;52.364;6.580;2023-08-06T12:03:45;15.30;;;13.87;;
60306;SDS011;46155;52.364;6.580;2023-08-06T12:06:11;13.87;;;12.70;;
60306;SDS011;46155;52.364;6.580;2023-08-06T12:08:36;13.77;;;12.37;;
60306;SDS011;46155;52.364;6.580;2023-08-06T12:11:03;14.37;;;13.07;;
60306;SDS011;46155;52.364;6.580;2023-08-06T12:13:28;13.30;;;12.07;;
60306;SDS011;46155;52.364;6.580;2023-08-06T12:15:54;11.57;;;10.57;;
60306;SDS011;46155;52.364;6.580;2023-08-06T12:18:22;13.65;;;12.35;;
60306;SDS011;46155;52.364;6.580;2023-08-06T12:20:47;14.03;;;12.73;;
60306;SDS011;46155;52.364;6.580;2023-08-06T12:23:12;14.23;;;12.83;;
60306;SDS011;46155;52.364;6.580;2023-08-06T12:25:40;13.00;;;11.90;;
60306;SDS011;46155;52.364;6.580;2023-08-06T12:28:06;13.37;;;12.23;;
60306;SDS011;46155;52.364;6.580;2023-08-06T12:30:32;13.57;;;12.47;;
60306;SDS011;46155;52.364;6.580;2023-08-06T12:32:58;12.70;;;11.80;;
60306;SDS011;46155;52.364;6.580;2023-08-06T12:35:23;14.27;;;12.87;;
60306;SDS011;46155;52.364;6.580;2023-08-06T12:37:50;13.03;;;11.97;;
60306;SDS011;46155;52.364;6.580;2023-08-06T12:40:19;11.70;;;10.70;;
60306;SDS011;46155;52.364;6.580;2023-08-06T12:42:44;12.70;;;11.40;;
60306;SDS011;46155;52.364;6.580;2023-08-06T12:45:10;12.40;;;11.27;;
60306;SDS011;46155;52.364;6.580;2023-08-06T12:47:35;11.27;;;10.27;;
60306;SDS011;46155;52.364;6.580;2023-08-06T12:50:00;12.20;;;10.63;;
60306;SDS011;46155;52.364;6.580;2023-08-06T12:52:26;11.37;;;10.47;;
60306;SDS011;46155;52.364;6.580;2023-08-06T12:54:51;14.20;;;10.03;;
60306;SDS011;46155;52.364;6.580;2023-08-06T12:57:16;10.87;;;9.97;;
60306;SDS011;46155;52.364;6.580;2023-08-06T12:59:42;11.10;;;10.10;;
60306;SDS011;46155;52.364;6.580;2023-08-06T13:02:07;11.33;;;10.33;;
60306;SDS011;46155;52.364;6.580;2023-08-06T13:04:33;9.43;;;8.73;;
60306;SDS011;46155;52.364;6.580;2023-08-06T13:06:59;11.00;;;10.00;;
60306;SDS011;46155;52.364;6.580;2023-08-06T13:09:24;8.60;;;8.00;;
60306;SDS011;46155;52.364;6.580;2023-08-06T13:11:51;9.43;;;8.73;;
60306;SDS011;46155;52.364;6.580;2023-08-06T13:14:16;10.80;;;9.90;;
60306;SDS011;46155;52.364;6.580;2023-08-06T13:16:42;10.17;;;9.47;;
60306;SDS011;46155;52.364;6.580;2023-08-06T13:19:08;9.50;;;8.80;;
60306;SDS011;46155;52.364;6.580;2023-08-06T13:24:16;10.17;;;9.27;;
60306;SDS011;46155;52.364;6.580;2023-08-06T13:26:42;9.60;;;8.73;;
60306;SDS011;46155;52.364;6.580;2023-08-06T13:29:07;9.30;;;8.70;;
60306;SDS011;46155;52.364;6.580;2023-08-06T13:31:32;9.10;;;8.40;;
60306;SDS011;46155;52.364;6.580;2023-08-06T13:33:58;8.93;;;8.23;;
60306;SDS011;46155;52.364;6.580;2023-08-06T13:36:26;7.93;;;7.43;;
60306;SDS011;46155;52.364;6.580;2023-08-06T13:38:52;8.97;;;8.17;;
60306;SDS011;46155;52.364;6.580;2023-08-06T13:41:18;9.23;;;8.63;;
60306;SDS011;46155;52.364;6.580;2023-08-06T13:43:44;8.90;;;8.30;;
60306;SDS011;46155;52.364;6.580;2023-08-06T13:46:09;9.00;;;8.30;;
60306;SDS011;46155;52.364;6.580;2023-08-06T13:48:39;9.33;;;8.53;;
60306;SDS011;46155;52.364;6.580;2023-08-06T13:51:05;9.87;;;9.17;;
60306;SDS011;46155;52.364;6.580;2023-08-06T13:53:30;9.30;;;8.60;;
60306;SDS011;46155;52.364;6.580;2023-08-06T13:55:56;7.70;;;7.20;;
60306;SDS011;46155;52.364;6.580;2023-08-06T13:58:22;8.50;;;7.87;;
60306;SDS011;46155;52.364;6.580;2023-08-06T14:00:48;10.60;;;9.70;;
60306;SDS011;46155;52.364;6.580;2023-08-06T14:03:13;9.83;;;9.03;;
60306;SDS011;46155;52.364;6.580;2023-08-06T14:05:38;10.03;;;9.27;;
60306;SDS011;46155;52.364;6.580;2023-08-06T14:08:03;8.97;;;8.30;;
60306;SDS011;46155;52.364;6.580;2023-08-06T14:10:29;7.03;;;6.53;;
60306;SDS011;46155;52.364;6.580;2023-08-06T14:12:54;6.87;;;6.47;;
60306;SDS011;46155;52.364;6.580;2023-08-06T14:15:19;10.07;;;9.17;;
60306;SDS011;46155;52.364;6.580;2023-08-06T14:17:45;11.27;;;10.17;;
60306;SDS011;46155;52.364;6.580;2023-08-06T14:20:10;14.30;;;12.83;;
60306;SDS011;46155;52.364;6.580;2023-08-06T14:22:37;16.57;;;15.57;;
60306;SDS011;46155;52.364;6.580;2023-08-06T14:25:02;15.07;;;14.13;;
60306;SDS011;46155;52.364;6.580;2023-08-06T14:27:28;14.77;;;13.60;;
60306;SDS011;46155;52.364;6.580;2023-08-06T14:29:53;13.47;;;12.67;;
60306;SDS011;46155;52.364;6.580;2023-08-06T14:32:19;14.43;;;13.53;;
60306;SDS011;46155;52.364;6.580;2023-08-06T14:34:44;12.73;;;12.03;;
60306;SDS011;46155;52.364;6.580;2023-08-06T14:37:10;18.60;;;17.40;;
60306;SDS011;46155;52.364;6.580;2023-08-06T14:39:35;16.07;;;15.10;;
60306;SDS011;46155;52.364;6.580;2023-08-06T14:42:01;18.70;;;17.50;;
60306;SDS011;46155;52.364;6.580;2023-08-06T14:44:27;17.63;;;16.43;;
60306;SDS011;46155;52.364;6.580;2023-08-06T14:46:52;16.97;;;15.87;;
60306;SDS011;46155;52.364;6.580;2023-08-06T14:49:18;16.60;;;15.60;;
60306;SDS011;46155;52.364;6.580;2023-08-06T14:51:43;18.73;;;17.20;;
60306;SDS011;46155;52.364;6.580;2023-08-06T14:54:08;18.83;;;17.63;;
60306;SDS011;46155;52.364;6.580;2023-08-06T14:56:34;19.43;;;17.47;;
60306;SDS011;46155;52.364;6.580;2023-08-06T14:58:59;20.30;;;18.90;;
60306;SDS011;46155;52.364;6.580;2023-08-06T15:01:25;21.73;;;20.23;;
60306;SDS011;46155;52.364;6.580;2023-08-06T15:03:50;25.57;;;23.80;;
60306;SDS011;46155;52.364;6.580;2023-08-06T15:06:15;24.43;;;22.43;;
60306;SDS011;46155;52.364;6.580;2023-08-06T15:08:41;25.13;;;23.20;;
60306;SDS011;46155;52.364;6.580;2023-08-06T15:11:09;24.00;;;22.20;;
60306;SDS011;46155;52.364;6.580;2023-08-06T15:13:34;23.70;;;22.10;;
60306;SDS011;46155;52.364;6.580;2023-08-06T15:15:59;22.83;;;20.90;;
60306;SDS011;46155;52.364;6.580;2023-08-06T15:18:24;25.83;;;23.73;;
60306;SDS011;46155;52.364;6.580;2023-08-06T15:20:50;22.07;;;20.33;;
60306;SDS011;46155;52.364;6.580;2023-08-06T15:23:15;21.83;;;20.13;;
60306;SDS011;46155;52.364;6.580;2023-08-06T15:25:41;25.90;;;23.53;;
60306;SDS011;46155;52.364;6.580;2023-08-06T15:28:06;23.10;;;21.30;;
60306;SDS011;46155;52.364;6.580;2023-08-06T15:30:32;23.07;;;21.00;;
60306;SDS011;46155;52.364;6.580;2023-08-06T15:32:57;20.87;;;19.27;;
60306;SDS011;46155;52.364;6.580;2023-08-06T15:35:22;18.13;;;16.73;;
60306;SDS011;46155;52.364;6.580;2023-08-06T15:37:48;20.00;;;18.50;;
60306;SDS011;46155;52.364;6.580;2023-08-06T15:40:13;19.70;;;18.20;;
60306;SDS011;46155;52.364;6.580;2023-08-06T15:42:39;21.93;;;20.33;;
60306;SDS011;46155;52.364;6.580;2023-08-06T15:45:04;21.37;;;19.87;;
60306;SDS011;46155;52.364;6.580;2023-08-06T15:47:30;21.60;;;20.10;;
60306;SDS011;46155;52.364;6.580;2023-08-06T15:49:56;22.90;;;21.10;;
60306;SDS011;46155;52.364;6.580;2023-08-06T15:52:21;21.80;;;20.33;;
60306;SDS011;46155;52.364;6.580;2023-08-06T15:54:46;23.43;;;21.57;;
60306;SDS011;46155;52.364;6.580;2023-08-06T15:57:11;22.23;;;20.47;;
60306;SDS011;46155;52.364;6.580;2023-08-06T15:59:37;24.23;;;22.17;;
60306;SDS011;46155;52.364;6.580;2023-08-06T16:02:02;27.37;;;25.30;;
60306;SDS011;46155;52.364;6.580;2023-08-06T16:04:28;25.13;;;23.43;;
60306;SDS011;46155;52.364;6.580;2023-08-06T16:06:55;25.73;;;23.73;;
60306;SDS011;46155;52.364;6.580;2023-08-06T16:09:21;25.70;;;23.70;;
60306;SDS011;46155;52.364;6.580;2023-08-06T16:11:49;24.47;;;22.70;;
60306;SDS011;46155;52.364;6.580;2023-08-06T16:14:16;24.57;;;22.97;;
60306;SDS011;46155;52.364;6.580;2023-08-06T16:16:42;22.77;;;21.00;;
60306;SDS011;46155;52.364;6.580;2023-08-06T16:19:08;23.23;;;21.73;;
60306;SDS011;46155;52.364;6.580;2023-08-06T16:21:33;22.73;;;21.13;;
60306;SDS011;46155;52.364;6.580;2023-08-06T16:23:58;23.50;;;21.90;;
60306;SDS011;46155;52.364;6.580;2023-08-06T16:26:24;25.57;;;23.70;;
60306;SDS011;46155;52.364;6.580;2023-08-06T16:28:50;23.17;;;21.67;;
60306;SDS011;46155;52.364;6.580;2023-08-06T16:31:15;23.10;;;21.37;;
60306;SDS011;46155;52.364;6.580;2023-08-06T16:33:40;23.97;;;22.37;;
60306;SDS011;46155;52.364;6.580;2023-08-06T16:36:07;23.60;;;21.90;;
60306;SDS011;46155;52.364;6.580;2023-08-06T16:38:33;23.57;;;21.73;;
60306;SDS011;46155;52.364;6.580;2023-08-06T16:40:58;23.97;;;22.13;;
60306;SDS011;46155;52.364;6.580;2023-08-06T16:43:24;22.37;;;20.87;;
60306;SDS011;46155;52.364;6.580;2023-08-06T16:45:53;21.00;;;19.40;;
60306;SDS011;46155;52.364;6.580;2023-08-06T16:48:22;21.80;;;20.30;;
60306;SDS011;46155;52.364;6.580;2023-08-06T16:51:02;20.57;;;18.67;;
60306;SDS011;46155;52.364;6.580;2023-08-06T16:53:28;23.27;;;21.60;;
60306;SDS011;46155;52.364;6.580;2023-08-06T16:55:55;20.60;;;19.20;;
60306;SDS011;46155;52.364;6.580;2023-08-06T16:58:24;22.60;;;21.00;;
60306;SDS011;46155;52.364;6.580;2023-08-06T17:00:50;23.00;;;21.50;;
60306;SDS011;46155;52.364;6.580;2023-08-06T17:03:17;23.40;;;21.90;;
60306;SDS011;46155;52.364;6.580;2023-08-06T17:05:43;23.67;;;21.83;;
60306;SDS011;46155;52.364;6.580;2023-08-06T17:08:09;21.43;;;19.93;;
60306;SDS011;46155;52.364;6.580;2023-08-06T17:10:34;21.73;;;20.30;;
60306;SDS011;46155;52.364;6.580;2023-08-06T17:13:00;23.33;;;21.27;;
60306;SDS011;46155;52.364;6.580;2023-08-06T17:15:28;24.47;;;22.80;;
60306;SDS011;46155;52.364;6.580;2023-08-06T17:17:54;22.90;;;21.10;;
60306;SDS011;46155;52.364;6.580;2023-08-06T17:20:20;21.60;;;20.00;;
60306;SDS011;46155;52.364;6.580;2023-08-06T17:22:46;21.50;;;20.20;;
60306;SDS011;46155;52.364;6.580;2023-08-06T17:25:11;25.03;;;23.23;;
60306;SDS011;46155;52.364;6.580;2023-08-06T17:27:37;22.43;;;20.50;;
60306;SDS011;46155;52.364;6.580;2023-08-06T17:30:02;21.03;;;19.63;;
60306;SDS011;46155;52.364;6.580;2023-08-06T17:32:27;22.00;;;20.57;;
60306;SDS011;46155;52.364;6.580;2023-08-06T17:34:53;18.83;;;17.80;;